TimeEST,TemperatureF,Dew PointF,Humidity,Sea Level PressureIn,VisibilityMPH,Wind Direction,Wind SpeedMPH,Gust SpeedMPH,PrecipitationIn,Events,Conditions,WindDirDegrees,DateUTC
12:40 AM,53.6,51.8,94,29.94,4.0,SSW,12.7,-,N/A,,Overcast,210,2013-12-06 05:40:00
12:43 AM,53.6,51.8,94,29.94,1.8,SSW,13.8,20.7,N/A,,Overcast,210,2013-12-06 05:43:00
12:54 AM,53.6,53.6,100,29.94,0.5,SSW,13.8,20.7,N/A,Fog,Fog,200,2013-12-06 05:54:00
12:56 AM,54.0,53.1,97,29.94,0.5,SSW,12.7,20.7,N/A,Fog,Fog,200,2013-12-06 05:56:00
1:27 AM,53.6,53.6,100,29.94,0.2,SSW,12.7,-,N/A,Fog,Fog,210,2013-12-06 06:27:00
1:56 AM,53.1,53.1,100,29.93,0.2,SSW,11.5,-,N/A,Fog,Fog,200,2013-12-06 06:56:00
2:09 AM,53.6,53.6,100,29.91,0.5,SSW,11.5,-,N/A,Fog,Fog,200,2013-12-06 07:09:00
2:46 AM,53.6,53.6,100,29.94,0.2,SSW,9.2,-,N/A,Fog,Fog,210,2013-12-06 07:46:00
2:56 AM,54.0,53.1,97,29.94,0.2,SW,10.4,-,N/A,Fog,Fog,220,2013-12-06 07:56:00
3:22 AM,53.6,53.6,100,29.92,0.5,SW,12.7,-,N/A,Fog,Fog,220,2013-12-06 08:22:00
3:34 AM,55.4,53.6,94,29.91,1.2,SW,12.7,19.6,N/A,,Overcast,230,2013-12-06 08:34:00
3:56 AM,54.0,54.0,100,29.91,0.5,SSW,9.2,-,0.01,Fog,Fog,200,2013-12-06 08:56:00
4:20 AM,53.6,53.6,100,29.91,1.5,SSW,9.2,-,N/A,,Overcast,200,2013-12-06 09:20:00
4:40 AM,53.6,53.6,100,29.91,0.5,SSW,8.1,-,N/A,Fog,Fog,200,2013-12-06 09:40:00
4:56 AM,54.0,53.1,97,29.90,0.5,SSW,9.2,-,N/A,Fog,Fog,210,2013-12-06 09:56:00
5:43 AM,53.6,53.6,100,29.91,1.2,SSW,9.2,-,N/A,,Overcast,200,2013-12-06 10:43:00
5:56 AM,53.1,53.1,100,29.91,1.8,SSW,9.2,-,N/A,,Overcast,200,2013-12-06 10:56:00
6:56 AM,54.0,53.1,97,29.92,1.0,SW,10.4,-,N/A,,Overcast,220,2013-12-06 11:56:00
7:26 AM,53.6,53.6,100,29.92,0.5,SW,10.4,-,N/A,Fog,Fog,220,2013-12-06 12:26:00
7:38 AM,53.6,53.6,100,29.91,0.2,SW,9.2,-,0.00,Fog-Rain,Light Rain,220,2013-12-06 12:38:00
7:56 AM,55.0,54.0,96,29.92,0.5,WSW,9.2,-,0.00,Fog,Fog,240,2013-12-06 12:56:00
8:29 AM,55.4,53.6,94,29.93,3.0,SW,12.7,-,N/A,,Overcast,220,2013-12-06 13:29:00
8:56 AM,55.0,54.0,96,29.92,4.0,SW,10.4,-,N/A,,Overcast,230,2013-12-06 13:56:00
9:42 AM,57.2,57.2,100,29.93,1.8,WSW,12.7,-,0.00,Rain,Light Rain,250,2013-12-06 14:42:00
9:56 AM,57.9,57.0,97,29.93,1.5,West,10.4,-,0.00,,Overcast,260,2013-12-06 14:56:00
10:09 AM,57.2,55.4,94,29.93,3.0,West,11.5,19.6,N/A,,Overcast,260,2013-12-06 15:09:00
10:56 AM,54.0,52.0,93,29.95,4.0,NNW,13.8,20.7,0.00,Rain,Light Rain,340,2013-12-06 15:56:00
11:13 AM,51.8,50.0,94,29.93,2.0,North,8.1,-,0.00,Rain,Light Rain,350,2013-12-06 16:13:00
11:24 AM,51.8,50.0,94,29.93,3.0,North,9.2,-,0.01,Rain,Light Rain,360,2013-12-06 16:24:00
11:31 AM,51.8,50.0,94,29.92,3.0,North,6.9,-,0.01,Rain,Light Rain,360,2013-12-06 16:31:00
11:56 AM,51.1,48.9,92,29.93,6.0,North,11.5,-,0.01,Rain,Light Rain,350,2013-12-06 16:56:00
12:45 PM,48.2,48.2,100,29.93,2.5,North,11.5,-,0.00,Rain,Light Rain,360,2013-12-06 17:45:00
12:56 PM,48.9,48.0,97,29.93,2.5,North,10.4,18.4,0.00,Rain,Light Rain,350,2013-12-06 17:56:00
1:10 PM,48.2,48.2,100,29.93,5.0,North,9.2,16.1,0.00,Rain,Light Rain,350,2013-12-06 18:10:00
1:17 PM,48.2,48.2,100,29.94,9.0,North,10.4,17.3,0.00,Rain,Light Rain,350,2013-12-06 18:17:00
1:56 PM,48.9,46.0,90,29.96,5.0,NNW,8.1,-,0.03,Rain,Rain,340,2013-12-06 18:56:00
2:35 PM,48.2,46.4,93,29.95,10.0,North,9.2,-,0.00,,Overcast,350,2013-12-06 19:35:00
2:56 PM,48.0,46.0,93,29.96,10.0,North,8.1,-,0.00,,Overcast,350,2013-12-06 19:56:00
3:56 PM,46.9,45.0,93,29.99,4.0,North,9.2,-,0.00,Rain,Light Rain,350,2013-12-06 20:56:00
4:32 PM,46.4,44.6,93,30.00,5.0,NNW,5.8,-,0.00,,Overcast,340,2013-12-06 21:32:00
4:53 PM,46.4,46.4,100,30.01,5.0,North,6.9,-,0.01,Rain,Light Rain,350,2013-12-06 21:53:00
4:56 PM,46.9,46.0,97,30.01,5.0,North,8.1,-,0.01,Rain,Light Rain,350,2013-12-06 21:56:00
5:56 PM,46.9,45.0,93,30.02,10.0,North,8.1,-,0.02,Rain,Light Rain,360,2013-12-06 22:56:00
6:56 PM,46.9,44.1,90,30.03,10.0,NNW,3.5,-,0.00,,Overcast,340,2013-12-06 23:56:00
7:56 PM,46.9,44.1,90,30.02,10.0,North,5.8,-,0.01,,Overcast,360,2013-12-07 00:56:00
8:56 PM,42.1,36.0,79,30.07,3.0,NNW,8.1,17.3,0.07,Rain,Heavy Rain,340,2013-12-07 01:56:00
9:56 PM,42.1,35.1,76,30.09,6.0,NNW,12.7,20.7,0.03,Rain,Light Rain,340,2013-12-07 02:56:00
10:56 PM,39.9,36.0,86,30.06,6.0,North,8.1,17.3,0.06,Rain,Light Rain,360,2013-12-07 03:56:00
11:31 PM,39.2,37.4,93,30.04,6.0,North,10.4,-,0.01,Rain,Light Rain,10,2013-12-07 04:31:00
11:39 PM,41.0,37.4,87,30.06,5.0,North,10.4,-,0.01,Rain,Light Rain,350,2013-12-07 04:39:00
11:49 PM,39.2,37.4,93,30.06,4.0,North,9.2,18.4,0.02,Rain,Light Rain,350,2013-12-07 04:49:00
11:56 PM,39.9,37.0,89,30.06,3.0,North,12.7,18.4,0.04,Rain,Rain,360,2013-12-07 04:56:00